Hobart Regional Office, Australia
Current Conditions -  °F | °C
As of 12:00 AM on Monday 24 Nov 2014 (Local Time) from YMHB Reporting Station
Broken Clouds Broken Clouds  
Wind Chill: 57°   Ceiling: 25000
Heat Index: 57°   Visibility: 6mi
Dew Point: 52°   Wind: 5mph
Humidity: 82%   Direction: 70°ENE
Pressure: 29.85"   Gusts: NA
Location:  42.88°S, 147.32°E
Report Text: YMHB 231300Z 07004KT 9999 FEW040 BKN250 14/11 Q1011
Loading
Personal Weather Stations






























Interactive Weather Map New forecast layout! Learn more

10-Day Weather Forecast

Advertisements
Track Severe Weather on mobile